sensor_id;sensor_type;location;lat;lon;timestamp;P1;durP1;ratioP1;P2;durP2;ratioP2
81896;SDS011;71360;43.506;1.500;2023-12-20T00:00:13;20.87;;;12.37;;
81896;SDS011;71360;43.506;1.500;2023-12-20T00:02:38;19.73;;;12.80;;
81896;SDS011;71360;43.506;1.500;2023-12-20T00:05:04;19.30;;;13.17;;
81896;SDS011;71360;43.506;1.500;2023-12-20T00:07:30;21.55;;;13.18;;
81896;SDS011;71360;43.506;1.500;2023-12-20T00:09:55;19.40;;;11.20;;
81896;SDS011;71360;43.506;1.500;2023-12-20T00:12:21;19.80;;;11.93;;
81896;SDS011;71360;43.506;1.500;2023-12-20T00:14:46;20.15;;;12.00;;
81896;SDS011;71360;43.506;1.500;2023-12-20T00:17:12;20.03;;;11.53;;
81896;SDS011;71360;43.506;1.500;2023-12-20T00:19:37;20.10;;;11.57;;
81896;SDS011;71360;43.506;1.500;2023-12-20T00:22:03;19.20;;;11.03;;
81896;SDS011;71360;43.506;1.500;2023-12-20T00:24:28;19.60;;;11.57;;
81896;SDS011;71360;43.506;1.500;2023-12-20T00:26:54;19.93;;;11.27;;
81896;SDS011;71360;43.506;1.500;2023-12-20T00:29:19;19.03;;;11.27;;
81896;SDS011;71360;43.506;1.500;2023-12-20T00:31:45;17.83;;;11.35;;
81896;SDS011;71360;43.506;1.500;2023-12-20T00:34:10;17.83;;;11.53;;
81896;SDS011;71360;43.506;1.500;2023-12-20T00:36:35;21.07;;;12.63;;
81896;SDS011;71360;43.506;1.500;2023-12-20T00:39:01;18.60;;;11.70;;
81896;SDS011;71360;43.506;1.500;2023-12-20T00:41:27;17.73;;;11.27;;
81896;SDS011;71360;43.506;1.500;2023-12-20T00:43:53;17.45;;;10.57;;
81896;SDS011;71360;43.506;1.500;2023-12-20T00:46:18;18.67;;;11.30;;
81896;SDS011;71360;43.506;1.500;2023-12-20T00:48:44;16.48;;;11.05;;
81896;SDS011;71360;43.506;1.500;2023-12-20T00:51:10;18.43;;;11.03;;
81896;SDS011;71360;43.506;1.500;2023-12-20T00:53:36;17.10;;;10.73;;
81896;SDS011;71360;43.506;1.500;2023-12-20T00:56:01;18.07;;;11.10;;
81896;SDS011;71360;43.506;1.500;2023-12-20T00:58:27;18.52;;;10.90;;
81896;SDS011;71360;43.506;1.500;2023-12-20T01:00:53;17.53;;;11.20;;
81896;SDS011;71360;43.506;1.500;2023-12-20T01:03:18;18.03;;;11.17;;
81896;SDS011;71360;43.506;1.500;2023-12-20T01:05:44;19.30;;;11.10;;
81896;SDS011;71360;43.506;1.500;2023-12-20T01:08:09;15.57;;;10.87;;
81896;SDS011;71360;43.506;1.500;2023-12-20T01:10:35;16.70;;;10.47;;
81896;SDS011;71360;43.506;1.500;2023-12-20T01:13:00;17.53;;;10.80;;
81896;SDS011;71360;43.506;1.500;2023-12-20T01:15:26;14.75;;;9.82;;
81896;SDS011;71360;43.506;1.500;2023-12-20T01:17:51;18.03;;;10.70;;
81896;SDS011;71360;43.506;1.500;2023-12-20T01:20:17;17.60;;;9.93;;
81896;SDS011;71360;43.506;1.500;2023-12-20T01:22:45;15.47;;;10.10;;
81896;SDS011;71360;43.506;1.500;2023-12-20T01:25:11;17.30;;;10.48;;
81896;SDS011;71360;43.506;1.500;2023-12-20T01:27:36;15.40;;;10.83;;
81896;SDS011;71360;43.506;1.500;2023-12-20T01:30:01;15.40;;;10.00;;
81896;SDS011;71360;43.506;1.500;2023-12-20T01:32:27;15.07;;;10.33;;
81896;SDS011;71360;43.506;1.500;2023-12-20T01:34:52;15.20;;;9.57;;
81896;SDS011;71360;43.506;1.500;2023-12-20T01:37:18;16.85;;;9.75;;
81896;SDS011;71360;43.506;1.500;2023-12-20T01:39:43;15.87;;;9.93;;
81896;SDS011;71360;43.506;1.500;2023-12-20T01:42:09;15.77;;;9.77;;
81896;SDS011;71360;43.506;1.500;2023-12-20T01:44:34;14.87;;;10.17;;
81896;SDS011;71360;43.506;1.500;2023-12-20T01:47:00;17.10;;;10.15;;
81896;SDS011;71360;43.506;1.500;2023-12-20T01:49:25;13.17;;;8.90;;
81896;SDS011;71360;43.506;1.500;2023-12-20T01:51:51;13.87;;;8.87;;
81896;SDS011;71360;43.506;1.500;2023-12-20T01:54:17;13.93;;;8.83;;
81896;SDS011;71360;43.506;1.500;2023-12-20T01:56:45;15.15;;;8.98;;
81896;SDS011;71360;43.506;1.500;2023-12-20T01:59:11;18.45;;;9.43;;
81896;SDS011;71360;43.506;1.500;2023-12-20T02:01:37;14.70;;;9.10;;
81896;SDS011;71360;43.506;1.500;2023-12-20T02:04:03;13.70;;;8.90;;
81896;SDS011;71360;43.506;1.500;2023-12-20T02:06:29;14.73;;;8.87;;
81896;SDS011;71360;43.506;1.500;2023-12-20T02:08:57;16.13;;;9.32;;
81896;SDS011;71360;43.506;1.500;2023-12-20T02:11:23;13.55;;;9.05;;
81896;SDS011;71360;43.506;1.500;2023-12-20T02:13:50;12.85;;;8.70;;
81896;SDS011;71360;43.506;1.500;2023-12-20T02:16:15;13.00;;;8.70;;
81896;SDS011;71360;43.506;1.500;2023-12-20T02:18:42;15.00;;;9.10;;
81896;SDS011;71360;43.506;1.500;2023-12-20T02:21:09;13.40;;;8.80;;
81896;SDS011;71360;43.506;1.500;2023-12-20T02:23:34;15.93;;;9.10;;
81896;SDS011;71360;43.506;1.500;2023-12-20T02:26:00;13.73;;;8.50;;
81896;SDS011;71360;43.506;1.500;2023-12-20T02:28:25;13.87;;;8.50;;
81896;SDS011;71360;43.506;1.500;2023-12-20T02:30:51;13.07;;;8.35;;
81896;SDS011;71360;43.506;1.500;2023-12-20T02:33:17;13.90;;;8.73;;
81896;SDS011;71360;43.506;1.500;2023-12-20T02:35:42;12.87;;;8.30;;
81896;SDS011;71360;43.506;1.500;2023-12-20T02:38:08;12.75;;;7.93;;
81896;SDS011;71360;43.506;1.500;2023-12-20T02:40:33;12.23;;;8.03;;
81896;SDS011;71360;43.506;1.500;2023-12-20T02:42:59;12.00;;;8.00;;
81896;SDS011;71360;43.506;1.500;2023-12-20T02:45:24;12.27;;;8.23;;
81896;SDS011;71360;43.506;1.500;2023-12-20T02:47:50;13.17;;;8.43;;
81896;SDS011;71360;43.506;1.500;2023-12-20T02:50:16;12.20;;;8.10;;
81896;SDS011;71360;43.506;1.500;2023-12-20T02:52:44;12.03;;;8.30;;
81896;SDS011;71360;43.506;1.500;2023-12-20T02:55:09;13.18;;;8.48;;
81896;SDS011;71360;43.506;1.500;2023-12-20T02:57:35;12.10;;;7.90;;
81896;SDS011;71360;43.506;1.500;2023-12-20T03:00:01;12.40;;;8.23;;
81896;SDS011;71360;43.506;1.500;2023-12-20T03:02:26;13.10;;;8.17;;
81896;SDS011;71360;43.506;1.500;2023-12-20T03:04:52;12.17;;;8.03;;
81896;SDS011;71360;43.506;1.500;2023-12-20T03:07:17;12.40;;;7.40;;
81896;SDS011;71360;43.506;1.500;2023-12-20T03:09:43;11.35;;;6.90;;
81896;SDS011;71360;43.506;1.500;2023-12-20T03:12:08;10.57;;;7.03;;
81896;SDS011;71360;43.506;1.500;2023-12-20T03:14:34;11.03;;;7.30;;
81896;SDS011;71360;43.506;1.500;2023-12-20T03:16:59;11.70;;;6.67;;
81896;SDS011;71360;43.506;1.500;2023-12-20T03:19:24;11.65;;;7.00;;
81896;SDS011;71360;43.506;1.500;2023-12-20T03:21:50;13.33;;;8.03;;
81896;SDS011;71360;43.506;1.500;2023-12-20T03:24:15;13.97;;;8.97;;
81896;SDS011;71360;43.506;1.500;2023-12-20T03:26:41;14.97;;;9.00;;
81896;SDS011;71360;43.506;1.500;2023-12-20T03:29:06;12.57;;;8.63;;
81896;SDS011;71360;43.506;1.500;2023-12-20T03:31:32;15.33;;;9.10;;
81896;SDS011;71360;43.506;1.500;2023-12-20T03:33:57;16.07;;;9.67;;
81896;SDS011;71360;43.506;1.500;2023-12-20T03:36:23;14.93;;;9.80;;
81896;SDS011;71360;43.506;1.500;2023-12-20T03:38:48;16.98;;;10.75;;
81896;SDS011;71360;43.506;1.500;2023-12-20T03:41:13;17.27;;;10.60;;
81896;SDS011;71360;43.506;1.500;2023-12-20T03:43:39;16.87;;;11.13;;
81896;SDS011;71360;43.506;1.500;2023-12-20T03:46:04;17.52;;;11.05;;
81896;SDS011;71360;43.506;1.500;2023-12-20T03:48:30;20.80;;;12.23;;
81896;SDS011;71360;43.506;1.500;2023-12-20T03:50:56;23.25;;;12.40;;
81896;SDS011;71360;43.506;1.500;2023-12-20T03:53:22;21.40;;;12.77;;
81896;SDS011;71360;43.506;1.500;2023-12-20T03:55:47;19.38;;;11.80;;
81896;SDS011;71360;43.506;1.500;2023-12-20T03:58:13;23.17;;;12.40;;
81896;SDS011;71360;43.506;1.500;2023-12-20T04:00:38;20.07;;;11.50;;
81896;SDS011;71360;43.506;1.500;2023-12-20T04:03:04;23.23;;;12.98;;
81896;SDS011;71360;43.506;1.500;2023-12-20T04:05:29;23.90;;;13.83;;
81896;SDS011;71360;43.506;1.500;2023-12-20T04:07:55;23.63;;;13.47;;
81896;SDS011;71360;43.506;1.500;2023-12-20T04:10:20;22.40;;;12.10;;
81896;SDS011;71360;43.506;1.500;2023-12-20T04:12:46;27.07;;;15.07;;
81896;SDS011;71360;43.506;1.500;2023-12-20T04:15:11;27.55;;;14.55;;
81896;SDS011;71360;43.506;1.500;2023-12-20T04:17:37;27.20;;;15.00;;
81896;SDS011;71360;43.506;1.500;2023-12-20T04:20:02;27.77;;;13.50;;
81896;SDS011;71360;43.506;1.500;2023-12-20T04:22:28;26.50;;;15.07;;
81896;SDS011;71360;43.506;1.500;2023-12-20T04:24:53;28.53;;;14.93;;
81896;SDS011;71360;43.506;1.500;2023-12-20T04:27:19;31.23;;;15.43;;
81896;SDS011;71360;43.506;1.500;2023-12-20T04:29:44;33.23;;;16.73;;
81896;SDS011;71360;43.506;1.500;2023-12-20T04:32:10;33.37;;;17.07;;
81896;SDS011;71360;43.506;1.500;2023-12-20T04:34:35;30.77;;;13.33;;
81896;SDS011;71360;43.506;1.500;2023-12-20T04:37:01;35.17;;;17.35;;
81896;SDS011;71360;43.506;1.500;2023-12-20T04:39:27;33.07;;;16.40;;
81896;SDS011;71360;43.506;1.500;2023-12-20T04:41:52;30.05;;;15.48;;
81896;SDS011;71360;43.506;1.500;2023-12-20T04:44:18;29.83;;;16.57;;
81896;SDS011;71360;43.506;1.500;2023-12-20T04:46:43;29.07;;;14.70;;
81896;SDS011;71360;43.506;1.500;2023-12-20T04:49:09;32.67;;;17.00;;
81896;SDS011;71360;43.506;1.500;2023-12-20T04:51:35;29.60;;;14.57;;
81896;SDS011;71360;43.506;1.500;2023-12-20T04:54:01;31.03;;;15.30;;
81896;SDS011;71360;43.506;1.500;2023-12-20T04:56:28;32.00;;;17.17;;
81896;SDS011;71360;43.506;1.500;2023-12-20T04:58:54;28.88;;;15.88;;
81896;SDS011;71360;43.506;1.500;2023-12-20T05:01:19;28.90;;;14.80;;
81896;SDS011;71360;43.506;1.500;2023-12-20T05:03:48;27.60;;;13.60;;
81896;SDS011;71360;43.506;1.500;2023-12-20T05:06:14;27.02;;;13.25;;
81896;SDS011;71360;43.506;1.500;2023-12-20T05:08:40;26.33;;;13.83;;
81896;SDS011;71360;43.506;1.500;2023-12-20T05:11:05;25.75;;;12.73;;
81896;SDS011;71360;43.506;1.500;2023-12-20T05:13:31;25.60;;;12.47;;
81896;SDS011;71360;43.506;1.500;2023-12-20T05:15:56;22.08;;;11.52;;
81896;SDS011;71360;43.506;1.500;2023-12-20T05:18:22;21.83;;;11.37;;
81896;SDS011;71360;43.506;1.500;2023-12-20T05:20:48;22.85;;;12.70;;
81896;SDS011;71360;43.506;1.500;2023-12-20T05:23:15;24.47;;;13.03;;
81896;SDS011;71360;43.506;1.500;2023-12-20T05:25:40;23.60;;;13.27;;
81896;SDS011;71360;43.506;1.500;2023-12-20T05:28:06;21.63;;;10.80;;
81896;SDS011;71360;43.506;1.500;2023-12-20T05:30:31;22.40;;;11.00;;
81896;SDS011;71360;43.506;1.500;2023-12-20T05:32:57;23.27;;;12.10;;
81896;SDS011;71360;43.506;1.500;2023-12-20T05:35:22;22.40;;;11.00;;
81896;SDS011;71360;43.506;1.500;2023-12-20T05:37:48;20.73;;;10.63;;
81896;SDS011;71360;43.506;1.500;2023-12-20T05:40:14;18.60;;;9.63;;
81896;SDS011;71360;43.506;1.500;2023-12-20T05:42:40;19.42;;;11.48;;
81896;SDS011;71360;43.506;1.500;2023-12-20T05:45:08;17.17;;;8.67;;
81896;SDS011;71360;43.506;1.500;2023-12-20T05:47:34;19.80;;;9.98;;
81896;SDS011;71360;43.506;1.500;2023-12-20T05:50:00;16.33;;;9.18;;
81896;SDS011;71360;43.506;1.500;2023-12-20T05:52:26;18.53;;;9.20;;
81896;SDS011;71360;43.506;1.500;2023-12-20T05:54:51;15.43;;;8.20;;
81896;SDS011;71360;43.506;1.500;2023-12-20T05:57:17;15.32;;;8.10;;
81896;SDS011;71360;43.506;1.500;2023-12-20T05:59:42;15.83;;;7.90;;
81896;SDS011;71360;43.506;1.500;2023-12-20T06:02:08;12.93;;;6.97;;
81896;SDS011;71360;43.506;1.500;2023-12-20T06:04:36;12.27;;;7.22;;
81896;SDS011;71360;43.506;1.500;2023-12-20T06:07:01;11.57;;;6.37;;
81896;SDS011;71360;43.506;1.500;2023-12-20T06:09:27;12.93;;;6.15;;
81896;SDS011;71360;43.506;1.500;2023-12-20T06:11:52;11.30;;;6.10;;
81896;SDS011;71360;43.506;1.500;2023-12-20T06:14:18;10.33;;;5.90;;
81896;SDS011;71360;43.506;1.500;2023-12-20T06:16:44;11.10;;;5.82;;
81896;SDS011;71360;43.506;1.500;2023-12-20T06:19:11;11.88;;;5.70;;
81896;SDS011;71360;43.506;1.500;2023-12-20T06:21:36;9.20;;;4.90;;
81896;SDS011;71360;43.506;1.500;2023-12-20T06:24:01;8.83;;;4.70;;
81896;SDS011;71360;43.506;1.500;2023-12-20T06:26:27;7.47;;;4.10;;
81896;SDS011;71360;43.506;1.500;2023-12-20T06:28:52;9.82;;;4.40;;
81896;SDS011;71360;43.506;1.500;2023-12-20T06:31:18;8.23;;;4.63;;
81896;SDS011;71360;43.506;1.500;2023-12-20T06:33:43;7.43;;;4.67;;
81896;SDS011;71360;43.506;1.500;2023-12-20T06:36:12;8.32;;;4.88;;
81896;SDS011;71360;43.506;1.500;2023-12-20T06:38:39;8.48;;;4.78;;
81896;SDS011;71360;43.506;1.500;2023-12-20T06:41:05;11.40;;;6.70;;
81896;SDS011;71360;43.506;1.500;2023-12-20T06:43:31;12.93;;;6.78;;
81896;SDS011;71360;43.506;1.500;2023-12-20T06:45:57;8.52;;;5.00;;
81896;SDS011;71360;43.506;1.500;2023-12-20T06:48:23;10.07;;;5.47;;
81896;SDS011;71360;43.506;1.500;2023-12-20T06:50:48;8.63;;;4.68;;
81896;SDS011;71360;43.506;1.500;2023-12-20T06:53:14;7.83;;;4.30;;
81896;SDS011;71360;43.506;1.500;2023-12-20T06:55:39;7.63;;;4.50;;
81896;SDS011;71360;43.506;1.500;2023-12-20T06:58:05;7.40;;;4.30;;
81896;SDS011;71360;43.506;1.500;2023-12-20T07:00:32;8.75;;;4.47;;
81896;SDS011;71360;43.506;1.500;2023-12-20T07:02:57;8.15;;;4.47;;
81896;SDS011;71360;43.506;1.500;2023-12-20T07:05:23;8.40;;;4.90;;
81896;SDS011;71360;43.506;1.500;2023-12-20T07:07:49;8.00;;;4.82;;
81896;SDS011;71360;43.506;1.500;2023-12-20T07:10:18;7.63;;;4.53;;
81896;SDS011;71360;43.506;1.500;2023-12-20T07:12:43;8.25;;;5.20;;
81896;SDS011;71360;43.506;1.500;2023-12-20T07:15:09;9.05;;;5.43;;
81896;SDS011;71360;43.506;1.500;2023-12-20T07:17:35;8.80;;;5.50;;
81896;SDS011;71360;43.506;1.500;2023-12-20T07:20:00;7.55;;;4.47;;
81896;SDS011;71360;43.506;1.500;2023-12-20T07:22:29;6.53;;;3.90;;
81896;SDS011;71360;43.506;1.500;2023-12-20T07:24:59;7.80;;;4.40;;
81896;SDS011;71360;43.506;1.500;2023-12-20T07:27:25;9.13;;;4.70;;
81896;SDS011;71360;43.506;1.500;2023-12-20T07:29:51;7.88;;;4.05;;
81896;SDS011;71360;43.506;1.500;2023-12-20T07:32:17;7.65;;;4.30;;
81896;SDS011;71360;43.506;1.500;2023-12-20T07:34:42;6.77;;;3.80;;
81896;SDS011;71360;43.506;1.500;2023-12-20T07:37:08;5.35;;;3.38;;
81896;SDS011;71360;43.506;1.500;2023-12-20T07:39:36;6.60;;;3.27;;
81896;SDS011;71360;43.506;1.500;2023-12-20T07:42:05;5.45;;;3.45;;
81896;SDS011;71360;43.506;1.500;2023-12-20T07:44:32;5.38;;;3.13;;
81896;SDS011;71360;43.506;1.500;2023-12-20T07:46:58;6.55;;;3.50;;
81896;SDS011;71360;43.506;1.500;2023-12-20T07:49:24;5.80;;;3.70;;
81896;SDS011;71360;43.506;1.500;2023-12-20T07:51:49;5.80;;;3.73;;
81896;SDS011;71360;43.506;1.500;2023-12-20T07:54:15;5.70;;;3.08;;
81896;SDS011;71360;43.506;1.500;2023-12-20T07:56:41;6.27;;;3.93;;
81896;SDS011;71360;43.506;1.500;2023-12-20T07:59:06;6.85;;;3.75;;
81896;SDS011;71360;43.506;1.500;2023-12-20T08:01:41;6.07;;;3.80;;
81896;SDS011;71360;43.506;1.500;2023-12-20T08:04:07;6.07;;;3.47;;
81896;SDS011;71360;43.506;1.500;2023-12-20T08:06:34;6.07;;;3.50;;
81896;SDS011;71360;43.506;1.500;2023-12-20T08:09:03;7.00;;;3.67;;
81896;SDS011;71360;43.506;1.500;2023-12-20T08:11:29;6.00;;;3.63;;
81896;SDS011;71360;43.506;1.500;2023-12-20T08:13:54;7.30;;;3.60;;
81896;SDS011;71360;43.506;1.500;2023-12-20T08:16:20;5.93;;;3.30;;
81896;SDS011;71360;43.506;1.500;2023-12-20T08:18:47;6.00;;;3.20;;
81896;SDS011;71360;43.506;1.500;2023-12-20T08:21:12;6.00;;;3.30;;
81896;SDS011;71360;43.506;1.500;2023-12-20T08:23:38;6.82;;;3.80;;
81896;SDS011;71360;43.506;1.500;2023-12-20T08:26:07;5.83;;;3.67;;
81896;SDS011;71360;43.506;1.500;2023-12-20T08:28:33;5.70;;;3.85;;
81896;SDS011;71360;43.506;1.500;2023-12-20T08:31:00;6.60;;;3.97;;
81896;SDS011;71360;43.506;1.500;2023-12-20T08:33:28;6.65;;;4.20;;
81896;SDS011;71360;43.506;1.500;2023-12-20T08:39:15;6.25;;;3.42;;
81896;SDS011;71360;43.506;1.500;2023-12-20T08:41:41;7.03;;;3.60;;
81896;SDS011;71360;43.506;1.500;2023-12-20T08:44:06;6.20;;;3.70;;
81896;SDS011;71360;43.506;1.500;2023-12-20T08:46:35;7.13;;;4.00;;
81896;SDS011;71360;43.506;1.500;2023-12-20T08:49:05;7.22;;;3.78;;
81896;SDS011;71360;43.506;1.500;2023-12-20T08:51:30;6.53;;;3.87;;
81896;SDS011;71360;43.506;1.500;2023-12-20T08:53:56;8.80;;;4.40;;
81896;SDS011;71360;43.506;1.500;2023-12-20T08:56:22;6.63;;;3.77;;
81896;SDS011;71360;43.506;1.500;2023-12-20T08:58:48;6.72;;;4.15;;
81896;SDS011;71360;43.506;1.500;2023-12-20T09:01:14;6.27;;;4.10;;
81896;SDS011;71360;43.506;1.500;2023-12-20T09:03:40;7.43;;;4.15;;
81896;SDS011;71360;43.506;1.500;2023-12-20T09:06:05;6.72;;;4.10;;
81896;SDS011;71360;43.506;1.500;2023-12-20T09:08:31;9.57;;;5.30;;
81896;SDS011;71360;43.506;1.500;2023-12-20T09:10:57;7.13;;;4.47;;
81896;SDS011;71360;43.506;1.500;2023-12-20T09:13:23;7.47;;;4.63;;
81896;SDS011;71360;43.506;1.500;2023-12-20T09:15:54;6.68;;;4.10;;
81896;SDS011;71360;43.506;1.500;2023-12-20T09:18:23;7.03;;;4.40;;
81896;SDS011;71360;43.506;1.500;2023-12-20T09:20:48;10.33;;;5.90;;
81896;SDS011;71360;43.506;1.500;2023-12-20T09:23:14;8.63;;;4.68;;
81896;SDS011;71360;43.506;1.500;2023-12-20T09:25:40;8.60;;;4.70;;
81896;SDS011;71360;43.506;1.500;2023-12-20T09:28:05;8.70;;;4.70;;
81896;SDS011;71360;43.506;1.500;2023-12-20T09:30:30;8.33;;;4.30;;
81896;SDS011;71360;43.506;1.500;2023-12-20T09:32:56;7.13;;;4.60;;
81896;SDS011;71360;43.506;1.500;2023-12-20T09:35:22;10.47;;;4.77;;
81896;SDS011;71360;43.506;1.500;2023-12-20T09:37:48;7.75;;;4.28;;
81896;SDS011;71360;43.506;1.500;2023-12-20T09:40:14;7.30;;;4.03;;
81896;SDS011;71360;43.506;1.500;2023-12-20T09:45:21;5.93;;;3.72;;
81896;SDS011;71360;43.506;1.500;2023-12-20T09:47:47;8.80;;;4.00;;
81896;SDS011;71360;43.506;1.500;2023-12-20T09:50:15;6.75;;;3.83;;
81896;SDS011;71360;43.506;1.500;2023-12-20T09:52:42;7.05;;;3.72;;
81896;SDS011;71360;43.506;1.500;2023-12-20T09:55:09;8.63;;;4.33;;
81896;SDS011;71360;43.506;1.500;2023-12-20T09:57:35;7.97;;;3.38;;
81896;SDS011;71360;43.506;1.500;2023-12-20T10:00:00;8.23;;;4.17;;
81896;SDS011;71360;43.506;1.500;2023-12-20T10:02:26;8.50;;;4.17;;
81896;SDS011;71360;43.506;1.500;2023-12-20T10:04:52;7.90;;;3.97;;
81896;SDS011;71360;43.506;1.500;2023-12-20T10:14:03;7.45;;;3.50;;
81896;SDS011;71360;43.506;1.500;2023-12-20T10:16:29;6.27;;;3.50;;
81896;SDS011;71360;43.506;1.500;2023-12-20T10:18:55;8.18;;;3.22;;
81896;SDS011;71360;43.506;1.500;2023-12-20T10:21:24;7.20;;;3.00;;
81896;SDS011;71360;43.506;1.500;2023-12-20T10:23:54;5.63;;;2.72;;
81896;SDS011;71360;43.506;1.500;2023-12-20T10:26:23;5.72;;;2.50;;
81896;SDS011;71360;43.506;1.500;2023-12-20T10:28:56;5.60;;;2.33;;
81896;SDS011;71360;43.506;1.500;2023-12-20T10:31:28;7.00;;;3.13;;
81896;SDS011;71360;43.506;1.500;2023-12-20T10:33:56;9.68;;;5.10;;
81896;SDS011;71360;43.506;1.500;2023-12-20T10:36:23;14.50;;;6.13;;
81896;SDS011;71360;43.506;1.500;2023-12-20T10:38:51;11.25;;;5.53;;
81896;SDS011;71360;43.506;1.500;2023-12-20T10:41:18;9.23;;;4.87;;
81896;SDS011;71360;43.506;1.500;2023-12-20T10:44:00;7.53;;;3.70;;
81896;SDS011;71360;43.506;1.500;2023-12-20T10:46:28;6.00;;;3.17;;
81896;SDS011;71360;43.506;1.500;2023-12-20T10:48:55;7.63;;;2.83;;
81896;SDS011;71360;43.506;1.500;2023-12-20T10:51:22;6.30;;;3.10;;
81896;SDS011;71360;43.506;1.500;2023-12-20T10:53:49;6.27;;;2.97;;
81896;SDS011;71360;43.506;1.500;2023-12-20T10:56:20;6.00;;;2.80;;
81896;SDS011;71360;43.506;1.500;2023-12-20T10:58:46;7.93;;;3.92;;
81896;SDS011;71360;43.506;1.500;2023-12-20T11:01:14;8.15;;;3.55;;
81896;SDS011;71360;43.506;1.500;2023-12-20T11:03:43;6.18;;;2.75;;
81896;SDS011;71360;43.506;1.500;2023-12-20T11:06:18;8.20;;;3.30;;
81896;SDS011;71360;43.506;1.500;2023-12-20T11:11:20;8.98;;;3.30;;
81896;SDS011;71360;43.506;1.500;2023-12-20T11:13:59;7.82;;;2.55;;
81896;SDS011;71360;43.506;1.500;2023-12-20T11:16:30;5.70;;;2.33;;
81896;SDS011;71360;43.506;1.500;2023-12-20T11:18:56;5.40;;;2.30;;
81896;SDS011;71360;43.506;1.500;2023-12-20T11:21:22;5.70;;;2.10;;
81896;SDS011;71360;43.506;1.500;2023-12-20T11:23:47;5.07;;;2.20;;
81896;SDS011;71360;43.506;1.500;2023-12-20T11:26:15;6.45;;;1.90;;
81896;SDS011;71360;43.506;1.500;2023-12-20T11:28:42;6.03;;;2.00;;
81896;SDS011;71360;43.506;1.500;2023-12-20T11:31:07;6.45;;;2.13;;
81896;SDS011;71360;43.506;1.500;2023-12-20T11:33:36;6.53;;;2.08;;
81896;SDS011;71360;43.506;1.500;2023-12-20T11:36:03;5.40;;;1.80;;
81896;SDS011;71360;43.506;1.500;2023-12-20T11:38:36;5.65;;;2.00;;
81896;SDS011;71360;43.506;1.500;2023-12-20T11:41:04;7.70;;;1.90;;
81896;SDS011;71360;43.506;1.500;2023-12-20T11:46:01;7.25;;;1.80;;
81896;SDS011;71360;43.506;1.500;2023-12-20T11:48:29;8.43;;;2.00;;
81896;SDS011;71360;43.506;1.500;2023-12-20T11:50:56;6.28;;;1.95;;
81896;SDS011;71360;43.506;1.500;2023-12-20T11:53:21;5.30;;;1.83;;
81896;SDS011;71360;43.506;1.500;2023-12-20T11:55:48;6.60;;;1.80;;
81896;SDS011;71360;43.506;1.500;2023-12-20T11:58:14;6.13;;;1.90;;
81896;SDS011;71360;43.506;1.500;2023-12-20T12:00:41;5.67;;;1.93;;
81896;SDS011;71360;43.506;1.500;2023-12-20T12:03:07;7.03;;;1.90;;
81896;SDS011;71360;43.506;1.500;2023-12-20T12:05:33;5.43;;;1.73;;
81896;SDS011;71360;43.506;1.500;2023-12-20T12:07:59;8.07;;;1.83;;
81896;SDS011;71360;43.506;1.500;2023-12-20T12:10:24;5.90;;;1.90;;
81896;SDS011;71360;43.506;1.500;2023-12-20T12:12:50;7.38;;;2.00;;
81896;SDS011;71360;43.506;1.500;2023-12-20T12:15:15;5.37;;;1.90;;
81896;SDS011;71360;43.506;1.500;2023-12-20T12:17:41;8.43;;;1.90;;
81896;SDS011;71360;43.506;1.500;2023-12-20T12:20:06;4.40;;;1.50;;
81896;SDS011;71360;43.506;1.500;2023-12-20T12:22:33;8.70;;;2.03;;
81896;SDS011;71360;43.506;1.500;2023-12-20T12:24:59;6.70;;;1.60;;
81896;SDS011;71360;43.506;1.500;2023-12-20T12:27:35;4.40;;;1.38;;
81896;SDS011;71360;43.506;1.500;2023-12-20T12:30:01;6.77;;;1.70;;
81896;SDS011;71360;43.506;1.500;2023-12-20T12:32:28;4.63;;;1.23;;
81896;SDS011;71360;43.506;1.500;2023-12-20T12:34:54;4.17;;;1.30;;
81896;SDS011;71360;43.506;1.500;2023-12-20T12:40:44;5.18;;;1.30;;
81896;SDS011;71360;43.506;1.500;2023-12-20T12:43:10;6.63;;;1.30;;
81896;SDS011;71360;43.506;1.500;2023-12-20T12:45:35;5.50;;;1.50;;
81896;SDS011;71360;43.506;1.500;2023-12-20T12:48:01;6.72;;;1.50;;
81896;SDS011;71360;43.506;1.500;2023-12-20T12:50:26;5.93;;;1.60;;
81896;SDS011;71360;43.506;1.500;2023-12-20T12:52:53;6.35;;;1.58;;
81896;SDS011;71360;43.506;1.500;2023-12-20T12:55:19;5.97;;;1.33;;
81896;SDS011;71360;43.506;1.500;2023-12-20T12:57:44;7.30;;;1.40;;
81896;SDS011;71360;43.506;1.500;2023-12-20T13:00:10;6.07;;;2.07;;
81896;SDS011;71360;43.506;1.500;2023-12-20T13:02:36;5.43;;;1.48;;
81896;SDS011;71360;43.506;1.500;2023-12-20T13:05:03;5.60;;;1.50;;
81896;SDS011;71360;43.506;1.500;2023-12-20T13:07:29;6.53;;;1.50;;
81896;SDS011;71360;43.506;1.500;2023-12-20T13:09:56;6.03;;;1.40;;
81896;SDS011;71360;43.506;1.500;2023-12-20T13:12:21;10.05;;;2.22;;
81896;SDS011;71360;43.506;1.500;2023-12-20T13:14:47;7.83;;;1.80;;
81896;SDS011;71360;43.506;1.500;2023-12-20T13:17:12;11.87;;;3.60;;
81896;SDS011;71360;43.506;1.500;2023-12-20T13:19:38;8.40;;;2.10;;
81896;SDS011;71360;43.506;1.500;2023-12-20T13:22:03;4.90;;;1.50;;
81896;SDS011;71360;43.506;1.500;2023-12-20T13:24:29;5.57;;;1.33;;
81896;SDS011;71360;43.506;1.500;2023-12-20T13:26:54;6.65;;;1.30;;
81896;SDS011;71360;43.506;1.500;2023-12-20T13:29:20;7.60;;;1.60;;
81896;SDS011;71360;43.506;1.500;2023-12-20T13:31:45;11.90;;;2.80;;
81896;SDS011;71360;43.506;1.500;2023-12-20T13:34:11;9.10;;;2.50;;
81896;SDS011;71360;43.506;1.500;2023-12-20T13:36:37;12.52;;;3.13;;
81896;SDS011;71360;43.506;1.500;2023-12-20T13:39:03;7.47;;;1.87;;
81896;SDS011;71360;43.506;1.500;2023-12-20T13:41:30;8.23;;;2.88;;
81896;SDS011;71360;43.506;1.500;2023-12-20T13:43:55;6.57;;;1.80;;
81896;SDS011;71360;43.506;1.500;2023-12-20T13:46:21;7.97;;;1.73;;
81896;SDS011;71360;43.506;1.500;2023-12-20T13:48:46;5.17;;;1.70;;
81896;SDS011;71360;43.506;1.500;2023-12-20T13:51:12;6.27;;;1.77;;
81896;SDS011;71360;43.506;1.500;2023-12-20T13:53:37;4.78;;;1.60;;
81896;SDS011;71360;43.506;1.500;2023-12-20T13:56:03;7.47;;;1.77;;
81896;SDS011;71360;43.506;1.500;2023-12-20T13:58:29;9.50;;;1.90;;
81896;SDS011;71360;43.506;1.500;2023-12-20T14:00:55;6.53;;;1.80;;
81896;SDS011;71360;43.506;1.500;2023-12-20T14:03:21;8.40;;;1.90;;
81896;SDS011;71360;43.506;1.500;2023-12-20T14:05:46;7.13;;;1.43;;
81896;SDS011;71360;43.506;1.500;2023-12-20T14:08:12;9.38;;;2.00;;
81896;SDS011;71360;43.506;1.500;2023-12-20T14:10:37;8.23;;;1.90;;
81896;SDS011;71360;43.506;1.500;2023-12-20T14:13:03;8.20;;;1.88;;
81896;SDS011;71360;43.506;1.500;2023-12-20T14:15:30;7.50;;;1.67;;
81896;SDS011;71360;43.506;1.500;2023-12-20T14:18:02;8.27;;;2.15;;
81896;SDS011;71360;43.506;1.500;2023-12-20T14:20:33;8.32;;;1.98;;
81896;SDS011;71360;43.506;1.500;2023-12-20T14:23:00;7.80;;;1.83;;
81896;SDS011;71360;43.506;1.500;2023-12-20T14:25:27;9.45;;;1.80;;
81896;SDS011;71360;43.506;1.500;2023-12-20T14:27:52;8.37;;;1.80;;
81896;SDS011;71360;43.506;1.500;2023-12-20T14:30:17;8.27;;;2.57;;
81896;SDS011;71360;43.506;1.500;2023-12-20T14:32:43;9.97;;;2.67;;
81896;SDS011;71360;43.506;1.500;2023-12-20T14:35:08;7.95;;;2.28;;
81896;SDS011;71360;43.506;1.500;2023-12-20T14:37:35;10.33;;;2.67;;
81896;SDS011;71360;43.506;1.500;2023-12-20T14:40:04;11.00;;;2.10;;
81896;SDS011;71360;43.506;1.500;2023-12-20T14:42:31;8.40;;;2.83;;
81896;SDS011;71360;43.506;1.500;2023-12-20T14:44:57;7.88;;;2.10;;
81896;SDS011;71360;43.506;1.500;2023-12-20T14:47:23;8.07;;;1.77;;
81896;SDS011;71360;43.506;1.500;2023-12-20T14:49:50;6.45;;;1.67;;
81896;SDS011;71360;43.506;1.500;2023-12-20T14:52:17;6.47;;;1.40;;